Terminal Aerodrome Forecast
Issued by NWS

Home | Current Version | Previous Version | Graphics & Text | Print | Product List | Glossary On
Versions: 1 2 3 4 5 6 7 8 9 10 11 12 13 14 15
916
FTUS43 KGRB 211120
TAFCWA
TAF
KCWA 211120Z 2112/2212 30009KT P6SM FEW150
     FM211300 33013G21KT P6SM SCT150
     FM211600 34012G20KT P6SM SCT045
     FM220000 35010G15KT P6SM SCT050
     FM220200 01006KT P6SM SKC=

USA.gov is the U.S. government's official web portal to all federal, state and local government web resources and services.